Weather observations for the past three days for
San Jose / Reid / Hillv
| Date | Time (pdt) | Wind (kph) | Vis. (km) | Weather | Sky Cond. | Temperature (ºC) | Relative Humidity | Wind Chill (°C) | Heat Index (°C) | Pressure | Precipitation (cm) | ||||||
|---|---|---|---|---|---|---|---|---|---|---|---|---|---|---|---|---|---|
| Air | Dwpt | 6 hour | altimeter (cm) | sea level (mb) | 1 hr | 3 hr | 6 hr | ||||||||||
| Max. | Min. | ||||||||||||||||
| 02 | 17:47 | NW 24 | 16.09 | Partly Cloudy | SCT060 | 24 | 13 | 50% | 25 | 76.2 | 0.0 | ||||||
| 02 | 16:47 | NW 20 | 16.09 | Partly Cloudy | SCT060 | 25 | 14 | 51% | 26 | 76.17 | 0.0 | ||||||
| 02 | 15:50 | NW 11 | 16.09 | Partly Cloudy | SCT060 | 26 | 13 | 45% | 26 | 76.2 | 0.0 | ||||||
| 02 | 14:47 | W 13 | 16.09 | Mostly Cloudy | BKN060 | 26 | 12 | 42% | 26 | 76.25 | 0.0 | ||||||
| 02 | 14:27 | N 9 | 16.09 | Mostly Cloudy | BKN060 | 25 | 12 | 44% | 26 | 76.28 | 0.0 | ||||||
| 02 | 13:47 | Calm | 16.09 | Mostly Cloudy | BKN060 | 26 | 12 | 42% | 26 | 76.3 | 0.0 | ||||||
| 02 | 12:47 | SW 13 G 26 | 16.09 | Partly Cloudy | SCT060 | 25 | 12 | 44% | 26 | 76.33 | 0.0 | ||||||
| 02 | 11:47 | Calm | 16.09 | Mostly Cloudy | BKN060 | 23 | 11 | 47% | 76.35 | 0.0 | |||||||
| 02 | 10:47 | Calm | 16.09 | Partly Cloudy | SCT060 | 22 | 11 | 50% | 76.35 | 0.0 | |||||||
| 02 | 09:47 | Vrbl 11 | 16.09 | Partly Cloudy | SCT060 | 19 | 11 | 60% | 76.35 | 0.0 | |||||||
| 02 | 08:47 | SW 13 | 16.09 | Partly Cloudy | SCT070 | 19 | 11 | 60% | 76.35 | 0.0 | |||||||
| 02 | 07:47 | Calm | 16.09 | Mostly Cloudy | BKN070 | 17 | 10 | 64% | 76.33 | 0.0 | |||||||
| 02 | 06:47 | Vrbl 6 | 16.09 | Mostly Cloudy | BKN070 | 14 | 9 | 72% | 76.3 | 0.0 | |||||||
| 01 | 21:55 | Vrbl 9 | 16.09 | A Few Clouds | FEW050 | 18 | 11 | 64% | 76.33 | 0.0 | |||||||
| 01 | 20:47 | N 19 | 16.09 | A Few Clouds | FEW050 | 19 | 9 | 52% | 76.28 | 0.0 | |||||||
| 01 | 19:55 | N 20 | 16.09 | A Few Clouds | FEW050 | 19 | 9 | 52% | 76.25 | 0.0 | |||||||
| 01 | 18:47 | NW 17 G 33 | 16.09 | A Few Clouds | FEW060 | 21 | 9 | 46% | 76.2 | 0.0 | |||||||
| 01 | 17:47 | N 24 | 16.09 | Partly Cloudy | SCT060 | 22 | 9 | 44% | 76.17 | 0.0 | |||||||
| 01 | 16:47 | NW 24 | 16.09 | Partly Cloudy | SCT060 | 23 | 9 | 41% | 76.17 | 0.0 | |||||||
| 01 | 15:47 | NW 22 G 31 | 16.09 | Partly Cloudy | SCT060 | 24 | 9 | 39% | 25 | 76.15 | 0.0 | ||||||
| 01 | 14:47 | W 17 | 16.09 | Partly Cloudy | SCT040 | 24 | 9 | 39% | 25 | 76.17 | 0.0 | ||||||
| 01 | 13:50 | SW 11 | 16.09 | Partly Cloudy | SCT040 | 23 | 8 | 38% | 76.23 | 0.0 | |||||||
| 01 | 12:47 | N 6 | 16.09 | Partly Cloudy | SCT040 | 22 | 8 | 41% | 76.25 | 0.0 | |||||||
| 01 | 11:47 | Calm | 16.09 | Partly Cloudy | SCT040 | 21 | 8 | 43% | 76.3 | 0.0 | |||||||
| 01 | 10:47 | Vrbl 9 | 16.09 | Mostly Cloudy | BKN040 | 19 | 8 | 49% | 76.3 | 0.0 | |||||||
| 01 | 09:47 | Calm | 16.09 | Mostly Cloudy | BKN040 | 18 | 8 | 52% | 76.28 | 0.0 | |||||||
| 01 | 08:47 | Calm | 16.09 | Mostly Cloudy | BKN020 | 17 | 8 | 56% | 76.25 | 0.0 | |||||||
| 01 | 07:47 | SW 7 | 16.09 | Mostly Cloudy | BKN030 | 17 | 8 | 56% | 76.23 | 0.0 | |||||||
| 01 | 06:55 | W 9 | 16.09 | Overcast | OVC030 | 17 | 8 | 56% | 76.17 | 0.0 | |||||||
| 31 | 21:55 | NW 13 | 16.09 | Clear | SKC | 17 | 11 | 68% | 76.12 | 0.0 | |||||||
| 31 | 20:47 | N 17 | 16.09 | Clear | SKC | 17 | 12 | 73% | 76.07 | 0.0 | |||||||
| 31 | 19:47 | N 19 | 16.09 | Clear | SKC | 18 | 12 | 68% | 76.02 | 0.0 | |||||||
| 31 | 18:55 | NW 20 | 16.09 | Clear | SKC | 18 | 11 | 64% | 76 | 0.0 | |||||||
| 31 | 17:47 | NW 20 | 16.09 | Clear | SKC | 21 | 12 | 57% | 76 | 0.0 | |||||||
| 31 | 16:47 | NW 20 | 16.09 | Clear | SKC | 22 | 12 | 53% | 76 | 0.0 | |||||||
| 31 | 15:47 | NW 17 G 28 | 16.09 | Clear | SKC | 22 | 12 | 53% | 76.02 | 0.0 | |||||||
| 31 | 14:47 | NW 17 G 28 | 16.09 | Clear | SKC | 22 | 12 | 53% | 76.05 | 0.0 | |||||||
| 31 | 13:51 | NW 13 | 16.09 | A Few Clouds | FEW025 | 22 | 11 | 50% | 76.1 | 0.0 | |||||||
| 31 | 12:47 | Calm | 16.09 | Partly Cloudy | SCT025 | 19 | 14 | 73% | 76.15 | 0.0 | |||||||
| 31 | 11:47 | E 6 | 16.09 | Mostly Cloudy | BKN025 | 18 | 12 | 68% | 76.17 | 0.0 | |||||||
| 31 | 10:47 | Calm | 16.09 | Overcast | OVC015 | 16 | 11 | 72% | 76.2 | 0.0 | |||||||
| 31 | 09:47 | S 7 | 14.48 | Overcast | OVC015 | 16 | 11 | 72% | 76.15 | 0.0 | |||||||
| 31 | 08:47 | S 7 | 12.87 | Overcast | OVC015 | 15 | 12 | 82% | 76.15 | 0.0 | |||||||
| 31 | 07:47 | Calm | 12.87 | Overcast | OVC015 | 14 | 12 | 88% | 76.12 | 0.0 | |||||||
| 31 | 06:55 | S 9 | 12.87 | Overcast | OVC015 | 14 | 11 | 82% | 76.07 | 0.0 | |||||||
| 30 | 21:57 | W 7 | 16.09 | Clear | SKC | 17 | 12 | 73% | 76.02 | 0.0 | |||||||
| 30 | 20:47 | NW 11 | 16.09 | Clear | SKC | 18 | 13 | 73% | 75.97 | 0.0 | |||||||
| 30 | 19:47 | NW 11 | 16.09 | Clear | SKC | 20 | 13 | 64% | 75.92 | 0.0 | |||||||
| Date | Time (pdt) | Wind (kph) | Vis. (km) | Weather | Sky Cond. | Air | Dwpt | Max. | Min. | Relative Humidity | Wind Chill (°C) | Heat Index (°C) | altimeter (cm) | sea level (mb) | 1 hr | 3 hr | 6 hr |
| 6 hour | |||||||||||||||||
| Temperature (ºC) | Pressure | Precipitation (cm) | |||||||||||||||